Steamboat Springs, CO

10:22 AM MST on March 03, 2015 (GMT -0700)
Steamboat Springs-Adams | Change Station
CLOSE
Current Station
Airport
Location: Steamboat Springs,
Elevation: 6877 ft
Nearby Weather Stations
Active Advisory: Winter Storm Warning

Elev 6877 ft 40.52 °N, 106.87 °W | Updated 7 minutes ago

Snow
Snow
29 °F
Feels Like 29 °F
N
0
Wind Variable Wind from North

Today
High -- | Low -- °F
--% Chance of Precip.
Yesterday
High -- | Low -- °F
Precip. -- in
6:38 AM 6:00 PM
Waxing Gibbous, 96% visible
Pressure 29.74 in
Visibility 10.0 miles
Clouds Mostly Cloudy 2300 ft
Mostly Cloudy 3000 ft
Overcast 3900 ft
Dew Point 20 °F
Humidity 69%
Rainfall 0.00 in
Snow Depth Not available.
UV 1 out of 12
Pollen .70 out of 12
Air Quality Not available.
Flu Activity Not available.
METAR KSBS 031715Z AUTO 00000KT 10SM BKN023 BKN030 OVC039 M02/M07 A2974 RMK AO1 T10161067

More Conditions Fewer Conditions

Pressure 29.74 in
Visibility 10.0 miles
Clouds Mostly Cloudy 2300 ft
Mostly Cloudy 3000 ft
Overcast 3900 ft
Dew Point 20 °F
Humidity 69%
Rainfall 0.00 in
Snow Depth Not available.
UV 1 out of 12
Pollen .70 out of 12
Air Quality Not available.
Flu Activity Not available.
METAR KSBS 031715Z AUTO 00000KT 10SM BKN023 BKN030 OVC039 M02/M07 A2974 RMK AO1 T10161067

More Conditions Fewer Conditions

10-Day Weather Forecast

Almanac

Astronomy

Mar. 03, 2015 Rise Set
Actual Time
Civil Twilight
Nautical Twilight
Astronomical Twilight
Moon
Length of Visible Light
Length of Day
Tomorrow will be .
, % of the Moon is Illuminated

Today's Extremes

State Highs State Lows

Community

WunderPhotos

Upload Photos

1,802,174 photos uploaded!

WunderBlogs® & News

Nearby

Air Quality

  Air Quality AQ Index Pollutant
Not available.

Snow Depth

Station Depth Elevation

Earthquake Activity

City Distance Mag. Time & Date
Minimum magnitude displayed is 2.5.

Coastal Water Temperatures

Place Temperature

Nearby Weather Stations

Winter Storm Warning
Statement as of 9:24 AM MST on March 03, 2015

... Winter Storm Warning remains in effect until 9 am MST
Wednesday...

* locations include the cities of... Columbine... Toponas.

* Timing... light snow this morning will become heavy at times
this afternoon and into Wednesday morning.

* Accumulation... additional 4 to 8 inches with locally higher
amounts.

* Winds... west 10 to 20 mph with gusts up to 40 mph over higher
terrain.

* Impacts... travel is expected to be difficult this afternoon
and overnight.

Precautionary/preparedness actions...

A Winter Storm Warning means significant amounts of snow are
expected or occurring. Strong winds and blowing snow are also
possible. This will make travel very hazardous or impossible.